Batavia, Illinois
Current Conditions -  °F | °C
As of 2:52 AM on Sunday 21 Dec 2014 (Local Time) from KDPA Reporting Station
Overcast Overcast  
Wind Chill: 26°   Ceiling: 3500
Heat Index: 32°   Visibility: 7mi
Dew Point: 27°   Wind: 7mph
Humidity: 82%   Direction: 160°SSE
Pressure: 30.22"   Gusts: NA
Location:  41.85°N, 88.31°W
Report Text: KDPA 210852Z 16006KT 7SM FEW022 OVC035 00/M03 A3022 RMK AO2 SLP243 T00001028 52001
Loading
Personal Weather Stations






























Interactive Weather Map New forecast layout! Learn more

10-Day Weather Forecast

Advertisements
Track Severe Weather on mobile